Time;durP1;ratioP1;P1;durP2;ratioP2;P2;SDS_P1;SDS_P2;PMS_P1;PMS_P2;Temp;Humidity;BMP_temperature;BMP_pressure;BME280_temperature;BME280_humidity;BME280_pressure;Samples;Min_cycle;Max_cycle;Signal;HPM_P1;HPM_P2
2023/05/07 00:00:11;;;;;;;2.93;2.00;;;13.30;99.90;;;14.00;100.00;98084.25;4918565;29;20466;-77
2023/05/07 00:02:40;;;;;;;2.50;1.90;;;13.20;99.90;;;13.95;100.00;98084.09;4917015;29;20521;-77
2023/05/07 00:05:12;;;;;;;2.30;1.97;;;13.20;99.90;;;13.86;100.00;98080.84;4918388;29;20495;-77
2023/05/07 00:07:42;;;;;;;4.20;2.10;;;13.20;99.90;;;13.88;100.00;98084.06;4917736;29;21044;-77
2023/05/07 00:10:12;;;;;;;2.17;1.97;;;13.10;99.90;;;13.85;100.00;98095.00;4920007;29;20926;-77
2023/05/07 00:12:42;;;;;;;2.53;2.00;;;13.10;99.90;;;13.85;100.00;98097.63;4916312;29;20629;-77
2023/05/07 00:15:11;;;;;;;3.70;1.90;;;13.10;99.90;;;13.82;100.00;98098.06;4917500;29;20473;-77
2023/05/07 00:17:40;;;;;;;3.10;1.83;;;13.00;99.90;;;13.83;100.00;98097.03;4913058;29;21158;-77
2023/05/07 00:20:12;;;;;;;4.23;2.03;;;13.00;99.90;;;13.80;100.00;98102.72;4918305;29;20463;-77
2023/05/07 00:22:41;;;;;;;4.43;1.67;;;13.00;99.90;;;13.77;100.00;98094.44;4916256;29;20463;-76
2023/05/07 00:25:11;;;;;;;1.87;1.53;;;13.00;99.90;;;13.72;100.00;98094.22;4917423;29;20593;-76
2023/05/07 00:27:39;;;;;;;3.13;1.90;;;13.00;99.90;;;13.71;100.00;98097.91;4920969;29;21060;-77
2023/05/07 00:30:10;;;;;;;3.90;2.00;;;12.90;99.90;;;13.68;100.00;98098.28;4920608;29;20526;-77
2023/05/07 00:32:39;;;;;;;2.87;1.80;;;12.90;99.90;;;13.65;100.00;98104.75;4920825;29;21226;-77
2023/05/07 00:35:09;;;;;;;2.00;1.80;;;12.90;99.90;;;13.62;100.00;98099.91;4920608;29;20544;-77
2023/05/07 00:37:40;;;;;;;2.80;1.53;;;12.90;99.90;;;13.58;100.00;98093.44;4920303;29;20806;-77
2023/05/07 00:40:10;;;;;;;6.23;2.00;;;12.80;99.90;;;13.53;100.00;98096.72;4920340;29;21012;-78
2023/05/07 00:42:39;;;;;;;2.00;1.60;;;12.80;99.90;;;13.48;100.00;98096.50;4920258;29;20470;-77
2023/05/07 00:45:08;;;;;;;3.70;2.00;;;12.70;99.90;;;13.48;100.00;98096.50;4920761;29;21076;-77
2023/05/07 00:47:38;;;;;;;1.60;1.50;;;12.70;99.90;;;13.46;100.00;98089.84;4919835;29;20477;-76
2023/05/07 00:50:09;;;;;;;2.37;1.87;;;12.70;99.90;;;13.47;100.00;98094.06;4920827;29;20474;-77
2023/05/07 00:52:41;;;;;;;2.17;1.57;;;12.60;99.90;;;13.39;100.00;98089.84;4921495;29;20533;-76
2023/05/07 00:55:12;;;;;;;3.07;2.07;;;12.60;99.90;;;13.35;100.00;98093.09;4917337;29;20473;-77
2023/05/07 00:57:42;;;;;;;5.93;2.43;;;12.60;99.90;;;13.28;100.00;98094.91;4916300;29;21219;-77
2023/05/07 01:00:12;;;;;;;3.90;1.77;;;12.60;99.90;;;13.23;100.00;98092.88;4919981;29;20533;-77
2023/05/07 01:02:43;;;;;;;3.40;1.77;;;12.50;99.90;;;13.26;100.00;98083.81;4916091;29;20470;-77
2023/05/07 01:05:16;;;;;;;1.93;1.70;;;12.50;99.90;;;13.28;100.00;98081.78;4916693;29;20510;-77
2023/05/07 01:07:48;;;;;;;9.97;1.50;;;12.40;99.90;;;13.20;100.00;98082.78;4918474;29;20541;-76
2023/05/07 01:10:17;;;;;;;2.20;1.80;;;12.50;99.90;;;13.17;100.00;98070.06;4915705;29;20501;-77
2023/05/07 01:12:47;;;;;;;4.37;2.17;;;12.40;99.90;;;13.18;100.00;98073.50;4916502;29;20600;-77
2023/05/07 01:15:18;;;;;;;2.20;2.00;;;12.40;99.90;;;13.16;100.00;98076.31;4913825;29;20605;-77
2023/05/07 01:17:46;;;;;;;4.03;2.07;;;12.40;99.90;;;13.13;100.00;98078.53;4916048;29;20491;-77
2023/05/07 01:20:15;;;;;;;1.83;1.67;;;12.30;99.90;;;13.16;100.00;98078.94;4916122;29;20474;-76
2023/05/07 01:22:46;;;;;;;1.63;1.50;;;12.30;99.90;;;13.12;100.00;98075.09;4910793;29;20749;-76
2023/05/07 01:25:16;;;;;;;5.70;1.73;;;12.30;99.90;;;13.12;100.00;98061.97;4917162;29;20513;-76
2023/05/07 01:27:47;;;;;;;1.73;1.57;;;12.30;99.90;;;13.15;100.00;98066.84;4921038;29;20844;-77
2023/05/07 01:30:17;;;;;;;2.87;1.57;;;12.30;99.90;;;13.13;100.00;98068.03;4923336;29;20549;-77
2023/05/07 01:32:54;;;;;;;2.20;1.60;;;12.30;99.90;;;13.09;100.00;98060.56;4918499;29;21204;-77
2023/05/07 01:35:29;;;;;;;2.20;1.87;;;12.30;99.90;;;13.05;100.00;98061.94;4919471;29;20496;-77
2023/05/07 01:38:04;;;;;;;1.63;1.47;;;12.20;99.90;;;13.01;100.00;98065.19;4920395;29;20553;-77
2023/05/07 01:40:33;;;;;;;3.23;1.63;;;12.30;99.90;;;12.89;100.00;98064.16;4919385;29;20467;-77
2023/05/07 01:43:04;;;;;;;2.20;1.77;;;12.30;99.90;;;12.87;100.00;98069.63;4920013;29;20715;-77
2023/05/07 01:45:34;;;;;;;1.57;1.37;;;12.20;99.90;;;12.91;100.00;98072.66;4922041;29;21236;-77
2023/05/07 01:48:05;;;;;;;3.23;1.87;;;12.20;99.90;;;12.83;100.00;98075.47;4923153;29;20474;-76
2023/05/07 01:50:35;;;;;;;7.50;1.87;;;12.10;99.90;;;12.84;100.00;98080.50;4922125;29;20831;-76
2023/05/07 01:53:05;;;;;;;1.60;1.50;;;12.10;99.90;;;12.87;100.00;98079.31;4923114;29;20770;-77
2023/05/07 01:55:36;;;;;;;2.80;1.87;;;12.00;99.90;;;12.89;100.00;98074.66;4924403;29;20474;-76
2023/05/07 01:58:05;;;;;;;2.03;1.60;;;12.00;99.90;;;12.88;100.00;98076.47;4922835;29;20840;-77
2023/05/07 02:00:33;;;;;;;4.90;1.90;;;12.00;99.90;;;12.83;100.00;98078.91;4922611;29;20486;-77
2023/05/07 02:03:02;;;;;;;2.47;1.80;;;12.00;99.90;;;12.81;100.00;98075.66;4922273;29;20497;-77
2023/05/07 02:05:32;;;;;;;2.43;1.50;;;12.00;99.90;;;12.81;100.00;98075.66;4923559;29;21005;-77
2023/05/07 02:08:01;;;;;;;4.37;1.93;;;12.00;99.90;;;12.83;100.00;98078.91;4921918;29;20494;-77
2023/05/07 02:10:31;;;;;;;2.33;1.83;;;12.00;99.90;;;12.82;100.00;98074.66;4923939;29;20466;-76
2023/05/07 02:13:01;;;;;;;2.27;1.60;;;12.00;99.90;;;12.80;100.00;98075.88;4921788;29;20510;-76
2023/05/07 02:15:30;;;;;;;2.23;1.60;;;12.00;99.90;;;12.78;100.00;98072.63;4921619;29;21038;-77
2023/05/07 02:18:04;;;;;;;6.93;1.97;;;12.00;99.90;;;12.78;100.00;98077.88;4918626;29;20466;-76
2023/05/07 02:20:33;;;;;;;3.23;1.63;;;12.10;99.90;;;12.75;100.00;98078.28;4920434;29;20510;-77
2023/05/07 02:23:01;;;;;;;2.90;1.60;;;12.00;99.90;;;12.74;100.00;98074.06;4917882;29;21216;-76
2023/05/07 02:25:31;;;;;;;3.93;1.90;;;12.00;99.90;;;12.74;100.00;98074.84;4916027;29;20506;-77
2023/05/07 02:28:01;;;;;;;2.57;1.93;;;12.00;99.90;;;12.73;100.00;98070.63;4922449;29;20474;-77
2023/05/07 02:30:31;;;;;;;2.10;1.60;;;12.00;99.90;;;12.72;100.00;98087.38;4921914;29;20836;-77
2023/05/07 02:32:59;;;;;;;1.67;1.57;;;12.00;99.90;;;12.72;100.00;98081.31;4921829;29;20505;-76
2023/05/07 02:35:28;;;;;;;2.60;1.80;;;12.00;99.90;;;12.71;100.00;98075.25;4921955;29;20537;-77
2023/05/07 02:37:56;;;;;;;5.20;1.80;;;12.00;99.90;;;12.73;100.00;98073.25;4923159;29;20471;-76
2023/05/07 02:40:25;;;;;;;6.30;1.80;;;11.90;99.90;;;12.71;100.00;98084.94;4922181;29;20470;-77
2023/05/07 02:42:56;;;;;;;1.50;1.40;;;12.00;99.90;;;12.69;100.00;98071.22;4922318;29;21269;-77
2023/05/07 02:45:24;;;;;;;3.00;1.80;;;11.90;99.90;;;12.71;100.00;98061.31;4923410;29;20510;-76
2023/05/07 02:47:53;;;;;;;1.60;1.50;;;11.90;99.90;;;12.69;100.00;98071.22;4921353;29;20529;-76
2023/05/07 02:50:22;;;;;;;2.70;2.00;;;11.90;99.90;;;12.65;100.00;98070.00;4920479;29;20969;-77
2023/05/07 02:52:50;;;;;;;3.20;1.50;;;11.90;99.90;;;12.69;100.00;98071.22;4915666;29;20475;-76
2023/05/07 02:55:19;;;;;;;6.37;1.80;;;11.80;99.90;;;12.63;100.00;98061.53;4919430;29;20478;-77
2023/05/07 02:57:48;;;;;;;2.03;1.50;;;11.80;99.90;;;12.57;100.00;98063.91;4918220;29;20507;-77
2023/05/07 03:00:21;;;;;;;5.97;1.83;;;11.80;99.90;;;12.49;100.00;98063.31;4921587;29;20482;-76
2023/05/07 03:02:50;;;;;;;1.80;1.37;;;11.80;99.90;;;12.50;100.00;98063.09;4921096;29;20466;-76
2023/05/07 03:05:18;;;;;;;2.30;2.07;;;11.70;99.90;;;12.53;100.00;98057.44;4921075;29;20759;-77
2023/05/07 03:07:47;;;;;;;1.90;1.67;;;11.70;99.90;;;12.48;100.00;98059.88;4920809;29;20517;-77
2023/05/07 03:10:16;;;;;;;2.00;1.80;;;11.70;99.90;;;12.48;100.00;98054.63;4919966;29;20796;-77
2023/05/07 03:12:45;;;;;;;1.60;1.43;;;11.70;99.90;;;12.39;100.00;98058.44;4917424;29;21084;-77
2023/05/07 03:15:13;;;;;;;7.53;1.80;;;11.70;99.90;;;12.38;100.00;98061.25;4917966;29;20475;-76
2023/05/07 03:17:43;;;;;;;6.40;1.50;;;11.60;99.90;;;12.35;100.00;98064.28;4922719;29;20529;-77
2023/05/07 03:20:13;;;;;;;5.50;1.57;;;11.60;99.90;;;12.36;100.00;98058.00;4922003;29;21045;-76
2023/05/07 03:22:42;;;;;;;2.37;1.40;;;11.60;99.90;;;12.35;100.00;98056.41;4919052;29;20976;-77
2023/05/07 03:25:12;;;;;;;2.03;1.60;;;11.60;99.90;;;12.31;100.00;98057.81;4917958;29;20503;-76
2023/05/07 03:27:41;;;;;;;2.60;1.40;;;11.60;99.90;;;12.26;100.00;98060.19;4914912;29;21099;-77
2023/05/07 03:30:12;;;;;;;1.70;1.60;;;11.60;99.90;;;12.23;100.00;98060.59;4916832;29;20550;-77
2023/05/07 03:32:44;;;;;;;3.43;1.63;;;11.50;99.90;;;12.22;100.00;98066.88;4918642;29;20816;-77
2023/05/07 03:35:12;;;;;;;2.10;1.90;;;11.50;99.90;;;12.21;100.00;98066.06;4915731;29;20573;-77
2023/05/07 03:37:41;;;;;;;4.00;1.80;;;11.40;99.90;;;12.13;100.00;98066.22;4917958;29;20503;-77
2023/05/07 03:40:12;;;;;;;3.17;1.47;;;11.50;99.90;;;12.10;100.00;98069.25;4918186;29;20464;-77
2023/05/07 03:42:41;;;;;;;2.63;1.70;;;11.40;99.90;;;12.15;100.00;98069.44;4915764;29;20464;-76
2023/05/07 03:45:11;;;;;;;2.57;1.83;;;11.30;99.90;;;12.15;100.00;98066.81;4916089;29;21252;-76
2023/05/07 03:47:40;;;;;;;4.50;1.70;;;11.30;99.90;;;12.16;100.00;98065.81;4916916;29;20635;-76
2023/05/07 03:50:11;;;;;;;2.10;1.77;;;11.30;99.90;;;12.09;100.00;98065.81;4919051;29;21062;-77
2023/05/07 03:52:40;;;;;;;5.80;2.30;;;11.30;99.90;;;11.99;100.00;98067.16;4917156;29;20546;-77
2023/05/07 03:55:10;;;;;;;2.13;1.40;;;11.30;99.90;;;11.98;100.00;98068.97;4918308;29;20466;-77
2023/05/07 03:57:40;;;;;;;1.70;1.30;;;11.30;99.90;;;11.95;100.00;98069.38;4918101;29;20637;-77
2023/05/07 04:00:09;;;;;;;2.47;1.40;;;11.20;99.90;;;11.96;100.00;98068.38;4917152;29;20475;-77
2023/05/07 04:02:38;;;;;;;1.80;1.70;;;11.20;99.90;;;11.95;100.00;98072.00;4917361;29;20545;-77
2023/05/07 04:05:08;;;;;;;5.83;1.70;;;11.20;99.90;;;11.92;100.00;98072.38;4914744;29;20557;-77
2023/05/07 04:07:38;;;;;;;5.00;1.73;;;11.20;99.90;;;11.93;100.00;98079.25;4917158;29;20993;-76
2023/05/07 04:10:08;;;;;;;2.53;1.77;;;11.20;99.90;;;11.94;100.00;98072.19;4915708;29;20529;-76
2023/05/07 04:12:37;;;;;;;1.93;1.77;;;11.20;99.90;;;11.90;100.00;98069.16;4898297;29;20467;-77
2023/05/07 04:15:09;;;;;;;2.27;1.10;;;11.20;99.90;;;11.88;100.00;98072.97;4917617;29;20661;-76
2023/05/07 04:17:38;;;;;;;2.87;1.43;;;11.10;99.90;;;11.87;100.00;98076.59;4916813;29;20564;-77
2023/05/07 04:20:10;;;;;;;2.00;1.40;;;11.10;99.90;;;11.88;100.00;98078.19;4916150;29;20466;-76
2023/05/07 04:22:40;;;;;;;3.00;1.73;;;11.10;99.90;;;11.85;100.00;98070.72;4918018;29;20529;-76
2023/05/07 04:25:10;;;;;;;2.07;1.33;;;11.00;99.90;;;11.81;100.00;98074.75;4920443;29;20471;-77
2023/05/07 04:27:39;;;;;;;1.50;1.40;;;11.10;99.90;;;11.83;100.00;98081.44;4920621;29;20609;-77
2023/05/07 04:30:09;;;;;;;3.13;1.63;;;11.00;99.90;;;11.83;100.00;98072.75;4919426;29;20478;-77
2023/05/07 04:32:38;;;;;;;2.33;1.73;;;11.00;99.90;;;11.80;100.00;98076.53;4919792;29;20478;-76
2023/05/07 04:35:09;;;;;;;1.63;1.30;;;11.00;99.90;;;11.76;100.00;98077.16;4919830;29;20470;-77
2023/05/07 04:37:40;;;;;;;6.07;1.53;;;11.00;99.90;;;11.75;100.00;98075.53;4920284;29;20569;-76
2023/05/07 04:40:10;;;;;;;1.87;1.70;;;11.00;99.90;;;11.75;100.00;98072.91;4920530;29;20466;-77
2023/05/07 04:42:38;;;;;;;2.20;1.53;;;11.00;99.90;;;11.74;100.00;98071.28;4919274;29;20983;-77
2023/05/07 04:45:08;;;;;;;1.87;1.67;;;11.00;99.90;;;11.72;100.00;98075.91;4920383;29;21099;-77
2023/05/07 04:47:37;;;;;;;1.50;1.30;;;11.00;99.90;;;11.75;100.00;98075.53;4919613;29;20512;-76
2023/05/07 04:50:09;;;;;;;1.53;1.43;;;11.10;99.90;;;11.77;100.00;98076.13;4920097;29;20474;-77
2023/05/07 04:52:39;;;;;;;4.20;1.80;;;11.00;99.90;;;11.80;100.00;98081.00;4918490;29;20905;-77
2023/05/07 04:55:09;;;;;;;2.73;1.60;;;11.00;99.90;;;11.80;100.00;98081.78;4919558;29;20954;-77
2023/05/07 04:57:39;;;;;;;1.93;1.80;;;11.10;99.90;;;11.83;100.00;98084.03;4920944;29;21056;-77
2023/05/07 05:00:10;;;;;;;2.00;1.70;;;11.10;99.90;;;11.88;100.00;98088.69;4918227;29;20538;-77
2023/05/07 05:02:40;;;;;;;6.03;1.63;;;11.10;99.90;;;11.93;100.00;98079.25;4920669;29;20477;-76
2023/05/07 05:05:10;;;;;;;7.30;2.07;;;11.20;99.90;;;11.99;100.00;98080.28;4924300;29;20868;-77
2023/05/07 05:07:41;;;;;;;2.07;1.73;;;11.20;99.90;;;12.03;100.00;98077.06;4924383;29;20596;-76
2023/05/07 05:10:09;;;;;;;1.60;1.50;;;11.20;99.90;;;12.08;100.00;98090.38;4923847;29;20517;-77
2023/05/07 05:12:38;;;;;;;4.03;1.97;;;11.30;99.90;;;12.14;100.00;98082.75;4923258;29;20474;-77
2023/05/07 05:15:10;;;;;;;5.87;1.97;;;11.30;99.90;;;12.18;100.00;98087.44;4923451;29;20473;-77
2023/05/07 05:17:39;;;;;;;8.33;1.83;;;11.40;99.90;;;12.21;100.00;98084.41;4924021;29;21423;-77
2023/05/07 05:20:11;;;;;;;3.17;1.83;;;11.40;99.90;;;12.26;100.00;98087.22;4922167;29;20474;-76
2023/05/07 05:22:42;;;;;;;3.40;1.60;;;11.50;99.90;;;12.30;100.00;98082.41;4924216;29;21055;-77
2023/05/07 05:25:12;;;;;;;3.13;1.80;;;11.50;99.90;;;12.33;100.00;98084.63;4923358;29;20473;-75
2023/05/07 05:27:40;;;;;;;5.13;1.87;;;11.60;99.90;;;12.37;100.00;98083.25;4922592;29;21197;-77
2023/05/07 05:30:10;;;;;;;3.47;1.93;;;11.60;99.90;;;12.40;100.00;98078.41;4922072;29;20974;-77
2023/05/07 05:32:38;;;;;;;1.87;1.67;;;11.70;99.90;;;12.43;100.00;98080.63;4921050;29;20471;-76
2023/05/07 05:35:08;;;;;;;3.13;1.87;;;11.70;99.90;;;12.44;100.00;98074.38;4921840;29;20462;-77
2023/05/07 05:37:37;;;;;;;2.20;1.50;;;11.70;99.90;;;12.47;100.00;98079.22;4922338;29;20470;-80
2023/05/07 05:40:08;;;;;;;5.30;2.40;;;11.70;99.90;;;12.51;100.00;98077.03;4923725;29;20478;-76
2023/05/07 05:42:38;;;;;;;2.90;2.00;;;11.80;99.90;;;12.54;100.00;98080.06;4916367;29;20481;-77
2023/05/07 05:45:08;;;;;;;2.60;1.67;;;11.80;99.90;;;12.58;100.00;98081.28;4923241;29;20844;-77
2023/05/07 05:47:38;;;;;;;1.67;1.50;;;11.90;99.90;;;12.63;100.00;98082.50;4905720;29;20487;-77
2023/05/07 05:50:09;;;;;;;1.37;1.27;;;11.90;99.90;;;12.68;100.00;98082.69;4922422;29;20503;-77
2023/05/07 05:52:38;;;;;;;1.70;1.50;;;11.90;99.90;;;12.72;100.00;98081.31;4923313;29;20462;-77
2023/05/07 05:55:09;;;;;;;2.17;1.83;;;12.00;99.90;;;12.75;100.00;98084.34;4922107;29;20478;-77
2023/05/07 05:57:40;;;;;;;2.23;1.77;;;12.00;99.90;;;12.80;100.00;98092.44;4922255;29;20482;-77
2023/05/07 06:00:10;;;;;;;3.70;2.13;;;12.10;99.90;;;12.83;100.00;98089.41;4906270;29;20879;-77
2023/05/07 06:02:42;;;;;;;2.57;1.73;;;12.10;99.90;;;12.88;100.00;98088.78;4922080;29;20466;-77
2023/05/07 06:05:16;;;;;;;2.00;1.63;;;12.20;99.90;;;12.92;100.00;98093.44;4905707;29;20868;-77
2023/05/07 06:07:45;;;;;;;4.07;2.10;;;12.20;99.90;;;12.97;100.00;98095.47;4922951;29;20872;-75
2023/05/07 06:10:17;;;;;;;1.73;1.43;;;12.20;99.90;;;13.02;100.00;98093.84;4919282;29;20953;-77
2023/05/07 06:12:47;;;;;;;1.93;1.50;;;12.30;99.90;;;13.06;100.00;98102.13;4922377;29;20470;-77
2023/05/07 06:15:18;;;;;;;4.30;1.60;;;12.30;99.90;;;13.10;100.00;98095.50;4921559;29;20979;-77
2023/05/07 06:17:47;;;;;;;2.10;1.60;;;12.40;99.90;;;13.15;100.00;98097.53;4922824;29;21009;-77
2023/05/07 06:20:19;;;;;;;1.63;1.53;;;12.40;99.90;;;13.19;100.00;98096.13;4906407;29;21249;-77
2023/05/07 06:22:50;;;;;;;2.73;1.80;;;12.40;99.90;;;13.22;100.00;98093.91;4922397;29;21096;-77
2023/05/07 06:25:20;;;;;;;2.43;1.70;;;12.50;99.90;;;13.28;100.00;98094.91;4921675;29;21122;-78
2023/05/07 06:27:55;;;;;;;1.87;1.70;;;12.50;99.90;;;13.31;100.00;98097.94;4922070;29;20521;-77
2023/05/07 06:30:26;;;;;;;1.60;1.50;;;12.60;99.90;;;13.37;100.00;98091.88;4905774;29;20952;-77
2023/05/07 06:32:55;;;;;;;2.00;1.60;;;12.60;99.90;;;13.42;100.00;98101.78;4920980;29;20837;-77
2023/05/07 06:35:23;;;;;;;3.23;1.70;;;12.60;99.90;;;13.46;100.00;98095.91;4922750;29;20474;-77
2023/05/07 06:37:53;;;;;;;1.87;1.70;;;12.70;99.90;;;13.51;100.00;98101.34;4904069;29;20908;-78
2023/05/07 06:40:23;;;;;;;1.73;1.60;;;12.70;99.90;;;13.55;100.00;98105.19;4923174;29;20545;-77
2023/05/07 06:42:52;;;;;;;4.70;1.73;;;12.80;99.90;;;13.60;100.00;98113.28;4920470;29;20819;-77
2023/05/07 06:45:22;;;;;;;2.60;2.07;;;12.80;99.90;;;13.65;100.00;98107.38;4922902;29;20471;-77
2023/05/07 06:47:51;;;;;;;2.60;1.90;;;12.90;99.90;;;13.70;100.00;98106.78;4918903;29;20505;-77
2023/05/07 06:50:21;;;;;;;2.63;1.90;;;13.00;99.90;;;13.75;100.00;98110.41;4923503;29;20858;-77
2023/05/07 06:52:49;;;;;;;3.00;1.90;;;13.00;99.90;;;13.80;100.00;98113.22;4922776;29;20525;-77
2023/05/07 06:55:19;;;;;;;2.47;1.83;;;13.10;99.90;;;13.85;100.00;98118.66;4921858;29;20494;-77
2023/05/07 06:57:48;;;;;;;3.40;1.70;;;13.10;99.90;;;13.92;100.00;98110.75;4922231;29;20566;-77
2023/05/07 07:00:18;;;;;;;3.03;2.03;;;13.20;99.90;;;13.95;100.00;98113.78;4922265;29;20478;-77
2023/05/07 07:02:47;;;;;;;2.73;1.63;;;13.30;99.90;;;14.00;100.00;98107.91;4921355;29;21065;-77
2023/05/07 07:05:16;;;;;;;3.20;1.70;;;13.30;99.90;;;14.06;100.00;98112.34;4921360;29;20477;-77
2023/05/07 07:07:44;;;;;;;1.63;1.53;;;13.30;99.90;;;14.10;100.00;98119.63;4921117;29;20569;-77
2023/05/07 07:10:12;;;;;;;2.00;1.67;;;13.40;99.90;;;14.16;100.00;98106.66;4922586;29;20554;-77
2023/05/07 07:12:41;;;;;;;2.33;1.80;;;13.30;99.90;;;14.23;100.00;98108.22;4919141;29;21039;-77
2023/05/07 07:15:12;;;;;;;2.60;1.60;;;13.50;99.90;;;14.29;100.00;98106.59;4921510;29;20478;-77
2023/05/07 07:17:41;;;;;;;1.83;1.67;;;13.60;99.90;;;14.35;100.00;98106.59;4922072;29;20966;-77
2023/05/07 07:20:11;;;;;;;4.17;2.80;;;13.60;99.90;;;14.42;100.00;98110.00;4920235;29;20901;-77
2023/05/07 07:22:39;;;;;;;15.10;8.50;;;13.70;99.90;;;14.49;100.00;98102.09;4912022;29;20549;-77
2023/05/07 07:25:09;;;;;;;15.37;7.63;;;13.80;99.90;;;14.57;100.00;98113.19;4914209;29;20501;-77
2023/05/07 07:27:39;;;;;;;3.77;2.50;;;13.80;99.90;;;14.65;100.00;98114.75;4917895;29;21065;-76
2023/05/07 07:30:12;;;;;;;3.70;2.10;;;14.00;99.90;;;14.75;100.00;98116.94;4912790;29;20490;-77
2023/05/07 07:32:41;;;;;;;21.90;2.30;;;14.10;99.90;;;14.84;100.00;98107.75;4915884;29;20474;-77
2023/05/07 07:35:10;;;;;;;4.13;2.23;;;14.30;99.90;;;14.94;100.00;98110.72;4912017;29;20550;-78
2023/05/07 07:37:39;;;;;;;6.13;1.90;;;14.40;99.90;;;15.00;100.00;98110.69;4915971;29;20476;-77
2023/05/07 07:40:09;;;;;;;3.80;2.20;;;14.40;99.90;;;15.09;100.00;98106.78;4913957;29;20545;-77
2023/05/07 07:42:40;;;;;;;2.73;1.97;;;14.60;99.90;;;15.17;100.00;98110.97;4915384;29;20482;-78
2023/05/07 07:45:11;;;;;;;3.63;2.40;;;14.70;99.90;;;15.23;100.00;98104.84;4911911;29;20499;-77
2023/05/07 07:47:40;;;;;;;4.70;1.87;;;14.60;99.90;;;15.32;100.00;98103.56;4915837;29;20885;-75
2023/05/07 07:50:11;;;;;;;5.40;3.10;;;14.80;99.90;;;15.41;100.00;98107.50;4913551;29;20471;-77
2023/05/07 07:52:53;;;;;;;11.53;2.27;;;14.80;99.90;;;15.50;100.00;98113.38;4899731;29;20917;-77
2023/05/07 07:55:24;;;;;;;1.83;1.63;;;14.90;99.90;;;15.55;100.00;98113.50;4918597;29;20470;-77
2023/05/07 07:57:52;;;;;;;2.63;2.10;;;14.90;99.90;;;15.61;100.00;98115.31;4920200;29;20808;-77
2023/05/07 08:00:22;;;;;;;2.70;2.03;;;15.00;99.90;;;15.67;100.00;98116.25;4920889;29;20498;-78
2023/05/07 08:02:53;;;;;;;3.07;2.20;;;15.00;99.90;;;15.73;100.00;98110.09;4920309;29;20979;-77
2023/05/07 08:05:22;;;;;;;4.50;1.93;;;15.10;99.90;;;15.79;100.00;98111.88;4919856;29;20485;-77
2023/05/07 08:07:53;;;;;;;2.30;2.10;;;15.10;99.90;;;15.84;100.00;98112.00;4919832;29;20965;-78
2023/05/07 08:10:22;;;;;;;5.20;1.67;;;15.20;99.90;;;15.89;100.00;98109.53;4921128;29;20569;-78
2023/05/07 08:12:52;;;;;;;2.80;1.90;;;15.40;99.90;;;15.95;100.00;98108.66;4919555;29;20558;-78
2023/05/07 08:15:22;;;;;;;2.30;2.10;;;15.40;99.90;;;16.03;100.00;98111.00;4920312;29;20466;-77
2023/05/07 08:17:51;;;;;;;3.20;2.00;;;15.40;99.90;;;16.05;100.00;98124.78;4918862;29;20463;-78
2023/05/07 08:20:20;;;;;;;2.97;1.70;;;15.40;99.90;;;16.12;100.00;98125.50;4919660;29;20550;-77
2023/05/07 08:22:49;;;;;;;3.63;1.93;;;15.40;99.90;;;16.18;100.00;98121.19;4918751;29;20490;-78
2023/05/07 08:25:18;;;;;;;2.17;1.77;;;15.50;99.90;;;16.23;100.00;98127.44;4920039;29;20462;-78
2023/05/07 08:27:46;;;;;;;3.27;2.07;;;15.70;99.90;;;16.27;100.00;98125.97;4918766;29;20685;-78
2023/05/07 08:30:16;;;;;;;1.70;1.60;;;15.70;99.90;;;16.33;100.00;98130.34;4919822;29;20502;-78
2023/05/07 08:32:49;;;;;;;3.50;2.03;;;15.70;99.90;;;16.38;100.00;98125.19;4919667;29;20469;-78
2023/05/07 08:35:17;;;;;;;4.77;1.90;;;15.80;99.90;;;16.44;100.00;98134.88;4920373;29;20496;-77
2023/05/07 08:37:46;;;;;;;1.90;1.70;;;15.80;99.90;;;16.49;100.00;98121.81;4930205;29;20502;-78
2023/05/07 08:40:15;;;;;;;1.90;1.60;;;15.80;99.90;;;16.55;100.00;98123.63;4923314;29;20522;-78
2023/05/07 08:42:47;;;;;;;2.93;1.90;;;15.90;99.90;;;16.59;100.00;98116.84;4924675;29;20605;-79
2023/05/07 08:45:16;;;;;;;2.73;2.23;;;15.90;99.90;;;16.67;100.00;98123.66;4922994;29;20970;-79
2023/05/07 08:47:53;;;;;;;2.07;1.80;;;16.00;99.90;;;16.73;100.00;98120.09;4923653;29;20865;-78
2023/05/07 08:50:22;;;;;;;3.30;1.80;;;16.10;99.90;;;16.80;100.00;98120.03;4925198;29;20621;-79
2023/05/07 08:52:50;;;;;;;3.20;1.70;;;16.20;99.90;;;16.85;100.00;98120.16;4907897;29;20478;-79
2023/05/07 08:55:20;;;;;;;2.90;1.90;;;16.20;99.90;;;16.91;100.00;98113.97;4924434;29;20462;-78
2023/05/07 08:57:52;;;;;;;3.60;2.47;;;16.40;99.90;;;16.95;100.00;98121.22;4923054;29;20478;-78
2023/05/07 09:00:21;;;;;;;3.00;2.00;;;16.40;99.90;;;17.02;100.00;98115.84;4923066;29;20914;-78
2023/05/07 09:02:53;;;;;;;3.03;1.80;;;16.50;99.90;;;17.08;100.00;98121.00;4919048;29;20541;-78
2023/05/07 09:05:22;;;;;;;4.17;2.10;;;16.50;99.90;;;17.12;100.00;98116.09;4923445;29;20541;-77
2023/05/07 09:07:50;;;;;;;2.30;2.00;;;16.60;99.90;;;17.13;100.00;98112.41;4923122;29;21038;-78
2023/05/07 09:10:22;;;;;;;2.33;1.90;;;16.60;99.90;;;17.18;100.00;98109.88;4922128;29;20501;-78
2023/05/07 09:12:52;;;;;;;1.67;1.57;;;16.60;99.90;;;17.24;100.00;98108.19;4922625;29;20494;-77
2023/05/07 09:15:22;;;;;;;3.27;1.90;;;16.70;99.90;;;17.27;100.00;98111.19;4899740;29;20529;-78
2023/05/07 09:17:51;;;;;;;1.70;1.60;;;16.70;99.90;;;17.35;100.00;98112.69;4923030;29;20458;-78
2023/05/07 09:20:21;;;;;;;4.83;1.97;;;16.90;99.90;;;17.37;100.00;98111.41;4924104;29;20558;-78
2023/05/07 09:22:51;;;;;;;2.60;1.80;;;16.80;99.90;;;17.42;100.00;98106.22;4923721;29;21100;-77
2023/05/07 09:25:30;;;;;;;2.40;1.77;;;16.80;99.90;;;17.50;100.00;98100.63;4923813;29;20599;-78
2023/05/07 09:28:00;;;;;;;4.77;2.70;;;16.90;99.90;;;17.58;100.00;98102.97;4923870;29;20471;-79
2023/05/07 09:30:30;;;;;;;2.10;1.90;;;17.00;99.90;;;17.63;100.00;98104.91;4924421;29;20531;-78
2023/05/07 09:33:02;;;;;;;3.40;2.50;;;17.20;99.90;;;17.65;100.00;98110.78;4923726;29;20494;-78
2023/05/07 09:35:31;;;;;;;3.17;1.70;;;17.20;99.90;;;17.72;100.00;98108.81;4905924;29;21034;-80
2023/05/07 09:38:02;;;;;;;3.77;1.67;;;17.10;99.90;;;17.76;100.00;98095.94;4924319;29;20486;-79
2023/05/07 09:40:32;;;;;;;2.70;1.80;;;17.10;99.90;;;17.82;100.00;98105.59;4924213;29;20466;-78
2023/05/07 09:43:11;;;;;;;1.70;1.60;;;17.20;99.90;;;17.89;100.00;98096.50;4922815;29;20470;-78
2023/05/07 09:45:40;;;;;;;3.70;1.73;;;17.40;99.90;;;17.96;100.00;98096.38;4924296;29;20470;-79
2023/05/07 09:48:11;;;;;;;2.00;1.70;;;17.40;99.90;;;18.03;100.00;98097.03;4923743;29;20488;-78
2023/05/07 09:50:52;;;;;;;2.00;1.53;;;17.60;99.90;;;18.09;100.00;98090.81;4926237;29;20577;-78
2023/05/07 09:53:22;;;;;;;4.70;2.10;;;17.70;99.90;;;18.15;100.00;98097.84;4927089;29;20474;-78
2023/05/07 09:55:52;;;;;;;2.63;1.70;;;17.70;99.90;;;18.16;100.00;98096.78;4925551;29;20451;-79
2023/05/07 09:58:22;;;;;;;5.33;1.97;;;17.70;99.90;;;18.23;100.00;98094.00;4927298;29;20593;-77
2023/05/07 10:00:53;;;;;;;3.50;1.73;;;17.70;99.90;;;18.30;100.00;98094.66;4926120;29;20536;-78
2023/05/07 10:03:26;;;;;;;2.30;1.80;;;17.80;99.90;;;18.39;100.00;98091.44;4926838;29;20554;-79
2023/05/07 10:05:56;;;;;;;1.80;1.60;;;17.90;99.90;;;18.44;100.00;98086.22;4926207;29;20505;-77
2023/05/07 10:08:25;;;;;;;3.30;1.83;;;18.00;99.90;;;18.51;100.00;98088.75;4926869;29;20549;-79
2023/05/07 10:10:53;;;;;;;2.53;1.80;;;18.00;99.90;;;18.57;100.00;98093.91;4925804;29;20502;-78
2023/05/07 10:13:23;;;;;;;3.90;1.60;;;18.10;99.90;;;18.63;100.00;98094.03;4927066;29;20989;-79
2023/05/07 10:15:52;;;;;;;2.97;1.63;;;18.30;99.90;;;18.69;100.00;98095.72;4927377;29;20477;-78
2023/05/07 10:18:29;;;;;;;2.17;1.70;;;18.20;99.90;;;18.74;100.00;98093.16;4926749;29;20470;-79
2023/05/07 10:21:17;;;;;;;3.20;1.70;;;18.30;99.90;;;18.80;100.00;98089.56;4927787;29;20500;-78
2023/05/07 10:23:50;;;;;;;6.63;1.90;;;18.40;99.90;;;18.84;100.00;98088.03;4926894;29;20502;-78